Main page
METAR-TAF:

METAR-TAF

Airports :

Oil platform

Goeree Le, Netherlands

latitude: 51-55-33N, longitude: 3-40-12E, elevation: 19 m

Current weather observation

The report was made 42 minutes ago, at 02:55 UTC
Wind 8 kt from the Southeast
Temperature 13°C
Humidity 82%
Pressure 1012 hPa
Visibility 10 km or more

METAR: EHSC 230255Z AUTO 13008KT 9999 ///////// 13/10 Q1012 W18/H11

Time: 05:37 (03:37 UTC)


TAF: missing

Weather observations and forecasts of more than 4000 airports (METAR and TAF reports).

The available stations are represented by yellow and red dots on the map.

Hover mouse over dot to see the name of the station.

Then click to see weather observations and forecasts.

To change the map : click on the green buttons with a black cross to zoom in, on the green button with a dash to zoom out, or on the green arrows for adjacent maps.


METAR-TAF: